createdAt,value
2018-03-02T00:00:02.813Z,99841.48
2018-03-02T00:02:30.470Z,99825.14
2018-03-02T00:04:58.264Z,99810.28
2018-03-02T00:07:26.043Z,99829.00
2018-03-02T00:09:53.753Z,99828.69
2018-03-02T00:12:21.384Z,99828.39
2018-03-02T00:14:49.032Z,99829.91
2018-03-02T00:17:16.736Z,99820.27
2018-03-02T00:19:44.398Z,99823.94
2018-03-02T00:22:12.077Z,99825.89
2018-03-02T00:24:39.753Z,99819.05
2018-03-02T00:27:07.336Z,99819.73
2018-03-02T00:29:35.005Z,99819.56
2018-03-02T00:32:02.692Z,99829.34
2018-03-02T00:34:30.262Z,99823.09
2018-03-02T00:36:57.884Z,99813.70
2018-03-02T00:39:25.491Z,99811.79
2018-03-02T00:41:53.195Z,99808.11
2018-03-02T00:44:20.969Z,99800.28
2018-03-02T00:46:48.630Z,99787.61
2018-03-02T00:49:16.306Z,99797.11
2018-03-02T00:51:43.989Z,99788.28
2018-03-02T00:54:11.655Z,99780.34
2018-03-02T00:56:39.447Z,99780.95
2018-03-02T00:59:07.185Z,99780.64
2018-03-02T01:01:34.898Z,99783.09
2018-03-02T01:04:02.500Z,99779.45
2018-03-02T01:06:30.155Z,99779.45
2018-03-02T01:08:57.777Z,99777.55
2018-03-02T01:11:25.360Z,99774.97
2018-03-02T01:13:53.020Z,99767.13
2018-03-02T01:16:20.602Z,99768.89
2018-03-02T01:18:48.180Z,99772.05
2018-03-02T01:21:15.957Z,99775.42
2018-03-02T01:23:43.665Z,99767.50
2018-03-02T01:26:11.655Z,99764.73
2018-03-02T01:28:39.315Z,99757.16
2018-03-02T01:31:07.107Z,99753.62
2018-03-02T01:33:34.982Z,99748.33
2018-03-02T01:36:02.588Z,99745.69
2018-03-02T01:38:30.438Z,99741.80
2018-03-02T01:40:58.105Z,99740.05
2018-03-02T01:43:25.851Z,99749.20
2018-03-02T01:45:53.619Z,99725.45
2018-03-02T01:48:21.444Z,99719.22
2018-03-02T01:50:49.323Z,99723.28
2018-03-02T01:53:17.169Z,99731.16
2018-03-02T01:55:44.806Z,99728.38
2018-03-02T01:58:12.547Z,99718.08
2018-03-02T02:00:40.233Z,99711.75
2018-03-02T02:03:07.820Z,99706.80
2018-03-02T02:05:35.480Z,99691.22
2018-03-02T02:08:03.216Z,99689.84
2018-03-02T02:10:31.035Z,99678.47
2018-03-02T02:12:58.873Z,99683.38
2018-03-02T02:15:26.474Z,99690.91
2018-03-02T02:17:54.264Z,99699.31
2018-03-02T02:20:21.921Z,99702.15
2018-03-02T02:22:49.610Z,99695.36
2018-03-02T02:25:17.396Z,99692.14
2018-03-02T02:27:45.050Z,99691.84
2018-03-02T02:30:12.848Z,99707.06
2018-03-02T02:32:40.475Z,99672.75
2018-03-02T02:35:08.060Z,99684.42
2018-03-02T02:37:35.879Z,99684.42
2018-03-02T02:40:03.758Z,99669.38
2018-03-02T02:42:31.528Z,99672.53
2018-03-02T02:44:59.153Z,99670.06
2018-03-02T02:47:26.984Z,99663.51
2018-03-02T02:49:54.757Z,99662.62
2018-03-02T02:52:22.425Z,99670.50
2018-03-02T02:54:50.218Z,99675.34
2018-03-02T02:57:17.979Z,99664.67
2018-03-02T02:59:45.773Z,99663.09
2018-03-02T03:02:13.537Z,99664.64
2018-03-02T03:04:41.429Z,99665.63
2018-03-02T03:07:09.152Z,99665.30
2018-03-02T03:09:36.879Z,99651.39
2018-03-02T03:12:04.647Z,99645.23
2018-03-02T03:14:32.434Z,99644.45
2018-03-02T03:17:00.168Z,99653.11
2018-03-02T03:19:27.880Z,99645.30
2018-03-02T03:21:55.549Z,99639.97
2018-03-02T03:24:23.228Z,99643.63
2018-03-02T03:26:50.877Z,99638.98
2018-03-02T03:29:18.691Z,99631.84
2018-03-02T03:31:46.355Z,99625.28
2018-03-02T03:34:14.104Z,99637.44
2018-03-02T03:36:41.928Z,99640.20
2018-03-02T03:39:09.802Z,99624.20
2018-03-02T03:41:37.573Z,99628.15
2018-03-02T03:44:05.363Z,99640.80
2018-03-02T03:46:33.111Z,99631.91
2018-03-02T03:49:00.698Z,99632.47
2018-03-02T03:51:28.345Z,99627.92
2018-03-02T03:53:56.012Z,99619.00
2018-03-02T03:56:23.617Z,99624.23
2018-03-02T03:58:51.294Z,99616.83
2018-03-02T04:01:18.980Z,99616.83
2018-03-02T04:03:46.560Z,99600.30
2018-03-02T04:06:14.194Z,99601.09
2018-03-02T04:08:41.906Z,99601.19
2018-03-02T04:11:09.786Z,99608.17
2018-03-02T04:13:37.379Z,99603.13
2018-03-02T04:16:05.035Z,99592.46
2018-03-02T04:18:32.702Z,99596.41
2018-03-02T04:21:00.375Z,99594.30
2018-03-02T04:23:28.162Z,99603.39
2018-03-02T04:25:56.045Z,99617.81
2018-03-02T04:28:23.712Z,99588.55
2018-03-02T04:30:51.392Z,99589.73
2018-03-02T04:33:19.061Z,99601.28
2018-03-02T04:35:46.857Z,99598.52
2018-03-02T04:38:14.582Z,99589.04
2018-03-02T04:40:42.217Z,99593.75
2018-03-02T04:43:10.164Z,99585.84
2018-03-02T04:45:38.014Z,99583.08
2018-03-02T04:48:05.631Z,99591.08
2018-03-02T04:50:33.257Z,99585.02
2018-03-02T04:53:00.979Z,99582.09
2018-03-02T04:55:28.646Z,99575.05
2018-03-02T04:57:56.252Z,99579.69
2018-03-02T05:00:23.911Z,99584.63
2018-03-02T05:02:51.572Z,99574.72
2018-03-02T05:05:19.157Z,99567.70
2018-03-02T05:07:46.817Z,99586.50
2018-03-02T05:10:14.500Z,99575.51
2018-03-02T05:12:42.175Z,99572.94
2018-03-02T05:15:09.957Z,99566.92
2018-03-02T05:17:37.735Z,99561.88
2018-03-02T05:20:05.405Z,99554.08
2018-03-02T05:22:33.062Z,99560.66
2018-03-02T05:25:00.869Z,99534.00
2018-03-02T05:27:28.453Z,99554.05
2018-03-02T05:29:56.098Z,99553.16
2018-03-02T05:32:23.694Z,99548.12
2018-03-02T05:34:51.346Z,99531.23
2018-03-02T05:37:19.096Z,99532.42
2018-03-02T05:39:46.807Z,99519.86
2018-03-02T05:42:14.388Z,99526.27
2018-03-02T05:44:42.115Z,99524.27
2018-03-02T05:47:09.734Z,99523.11
2018-03-02T05:49:37.473Z,99526.34
2018-03-02T05:52:05.290Z,99521.89
2018-03-02T05:54:33.070Z,99530.58
2018-03-02T05:57:00.851Z,99525.84
2018-03-02T05:59:28.689Z,99526.57
2018-03-02T06:01:56.453Z,99524.62
2018-03-02T06:04:24.143Z,99531.34
2018-03-02T06:06:51.777Z,99520.98
2018-03-02T06:09:19.562Z,99512.59
2018-03-02T06:11:47.221Z,99532.42
2018-03-02T06:14:14.813Z,99500.48
2018-03-02T06:16:42.557Z,99520.55
2018-03-02T06:19:10.338Z,99505.70
2018-03-02T06:21:37.916Z,99510.16
2018-03-02T06:24:05.687Z,99519.42
2018-03-02T06:26:33.362Z,99536.20
2018-03-02T06:29:01.031Z,99519.82
2018-03-02T06:31:28.952Z,99520.58
2018-03-02T06:33:56.584Z,99518.41
2018-03-02T06:36:24.241Z,99518.24
2018-03-02T06:38:51.928Z,99521.89
2018-03-02T06:41:19.630Z,99522.75
2018-03-02T06:43:47.294Z,99531.33
2018-03-02T06:46:14.886Z,99534.52
2018-03-02T06:48:42.639Z,99526.70
2018-03-02T06:51:10.422Z,99530.34
2018-03-02T06:53:38.091Z,99517.12
2018-03-02T06:56:05.877Z,99531.04
2018-03-02T06:58:33.652Z,99526.73
2018-03-02T07:01:01.328Z,99522.65
2018-03-02T07:03:29.109Z,99520.12
2018-03-02T07:05:56.769Z,99514.33
2018-03-02T07:08:24.445Z,99521.04
2018-03-02T07:10:52.133Z,99516.23
2018-03-02T07:13:20.032Z,99511.63
2018-03-02T07:15:47.787Z,99508.54
2018-03-02T07:18:15.386Z,99496.36
2018-03-02T07:20:43.099Z,99494.02
2018-03-02T07:23:10.814Z,99493.37
2018-03-02T07:25:38.379Z,99482.47
2018-03-02T07:28:06.022Z,99491.02
2018-03-02T07:30:33.638Z,99478.22
2018-03-02T07:33:01.350Z,99503.17
2018-03-02T07:35:29.079Z,99491.72
2018-03-02T07:37:56.762Z,99497.33
2018-03-02T07:40:24.436Z,99499.11
2018-03-02T07:42:52.104Z,99491.34
2018-03-02T07:45:19.675Z,99491.53
2018-03-02T07:47:47.464Z,99485.45
2018-03-02T07:50:15.071Z,99490.78
2018-03-02T07:52:42.864Z,99501.50
2018-03-02T07:55:10.444Z,99501.58
2018-03-02T07:57:38.041Z,99489.17
2018-03-02T08:00:05.841Z,99480.86
2018-03-02T08:02:33.423Z,99481.25
2018-03-02T08:05:01.138Z,99475.16
2018-03-02T08:07:28.784Z,99461.25
2018-03-02T08:09:56.538Z,99468.36
2018-03-02T08:12:24.313Z,99465.41
2018-03-02T08:14:51.966Z,99473.84
2018-03-02T08:17:19.540Z,99471.98
2018-03-02T08:19:47.130Z,99453.78
2018-03-02T08:22:14.770Z,99456.56
2018-03-02T08:24:42.477Z,99459.34
2018-03-02T08:27:10.211Z,99465.64
2018-03-02T08:29:37.883Z,99467.77
2018-03-02T08:32:05.504Z,99463.53
2018-03-02T08:34:33.174Z,99455.02
2018-03-02T08:37:00.858Z,99455.23
2018-03-02T08:39:28.537Z,99455.45
2018-03-02T08:41:56.116Z,99457.52
2018-03-02T08:44:23.885Z,99446.14
2018-03-02T08:46:51.505Z,99439.80
2018-03-02T08:49:19.105Z,99443.28
2018-03-02T08:51:46.735Z,99447.82
2018-03-02T08:54:14.440Z,99443.48
2018-03-02T08:56:42.101Z,99442.27
2018-03-02T08:59:09.818Z,99437.41
2018-03-02T09:01:37.560Z,99454.45
2018-03-02T09:04:05.188Z,99440.61
2018-03-02T09:06:32.842Z,99447.82
2018-03-02T09:09:00.535Z,99454.84
2018-03-02T09:11:28.320Z,99454.82
2018-03-02T09:13:55.930Z,99451.53
2018-03-02T09:16:23.532Z,99449.14
2018-03-02T09:18:51.344Z,99436.20
2018-03-02T09:21:19.111Z,99459.67
2018-03-02T09:23:46.708Z,99444.67
2018-03-02T09:26:14.287Z,99447.50
2018-03-02T09:28:42.134Z,99446.18
2018-03-02T09:31:09.817Z,99429.77
2018-03-02T09:33:37.501Z,99444.19
2018-03-02T09:36:05.158Z,99441.95
2018-03-02T09:38:32.801Z,99436.39
2018-03-02T09:41:00.371Z,99439.91
2018-03-02T09:43:27.971Z,99443.16
2018-03-02T09:45:55.629Z,99430.00
2018-03-02T09:48:23.445Z,99439.73
2018-03-02T09:50:51.120Z,99423.34
2018-03-02T09:53:18.775Z,99415.80
2018-03-02T09:55:46.576Z,99426.93
2018-03-02T09:58:14.249Z,99432.48
2018-03-02T10:00:41.912Z,99421.53
2018-03-02T10:03:09.586Z,99423.22
2018-03-02T10:05:37.231Z,99443.55
2018-03-02T10:08:04.859Z,99439.17
2018-03-02T10:10:32.587Z,99434.36
2018-03-02T10:13:00.196Z,99435.81
2018-03-02T10:15:27.875Z,99443.09
2018-03-02T10:17:55.533Z,99421.99
2018-03-02T10:20:23.209Z,99424.77
2018-03-02T10:22:50.891Z,99425.61
2018-03-02T10:25:18.569Z,99426.44
2018-03-02T10:27:46.206Z,99420.31
2018-03-02T10:30:13.836Z,99417.67
2018-03-02T10:32:41.457Z,99401.19
2018-03-02T10:35:09.274Z,99416.25
2018-03-02T10:37:37.157Z,99409.11
2018-03-02T10:40:04.828Z,99413.19
2018-03-02T10:42:32.504Z,99418.16
2018-03-02T10:45:00.292Z,99411.84
2018-03-02T10:47:28.009Z,99409.25
2018-03-02T10:49:55.735Z,99413.16
2018-03-02T10:52:23.327Z,99400.31
2018-03-02T10:54:50.986Z,99378.05
2018-03-02T10:57:18.765Z,99405.67
2018-03-02T10:59:46.335Z,99393.05
2018-03-02T11:02:19.715Z,99399.34
2018-03-02T11:04:47.422Z,99385.37
2018-03-02T11:07:15.190Z,99392.59
2018-03-02T11:09:42.783Z,99388.63
2018-03-02T11:12:10.417Z,99382.44
2018-03-02T11:14:38.028Z,99381.83
2018-03-02T11:17:05.788Z,99382.73
2018-03-02T11:19:33.355Z,99379.75
2018-03-02T11:22:01.028Z,99394.20
2018-03-02T11:24:28.595Z,99390.73
2018-03-02T11:26:56.292Z,99367.52
2018-03-02T11:29:23.914Z,99378.61
2018-03-02T11:31:51.487Z,99370.17
2018-03-02T11:34:19.218Z,99366.40
2018-03-02T11:36:46.895Z,99362.52
2018-03-02T11:39:14.472Z,99360.69
2018-03-02T11:41:42.140Z,99361.80
2018-03-02T11:44:09.802Z,99350.16
2018-03-02T11:46:37.483Z,99352.06
2018-03-02T11:49:05.370Z,99347.14
2018-03-02T11:51:33.103Z,99346.06
2018-03-02T11:54:00.724Z,99346.88
2018-03-02T11:56:28.385Z,99339.50
2018-03-02T11:58:56.097Z,99336.23
2018-03-02T12:01:23.752Z,99319.88
2018-03-02T12:03:51.403Z,99330.80
2018-03-02T12:06:19.106Z,99327.86
2018-03-02T12:08:46.751Z,99306.81
2018-03-02T12:11:14.345Z,99314.19
2018-03-02T12:13:41.948Z,99305.36
2018-03-02T12:16:09.572Z,99311.69
2018-03-02T12:18:37.140Z,99306.51
2018-03-02T12:21:04.842Z,99310.22
2018-03-02T12:23:32.507Z,99308.14
2018-03-02T12:26:00.078Z,99283.47
2018-03-02T12:28:27.763Z,99295.34
2018-03-02T12:30:55.345Z,99300.56
2018-03-02T12:33:22.922Z,99299.17
2018-03-02T12:35:50.573Z,99300.02
2018-03-02T12:38:18.255Z,99294.95
2018-03-02T12:40:45.822Z,99289.98
2018-03-02T12:43:13.635Z,99284.86
2018-03-02T12:45:41.227Z,99290.80
2018-03-02T12:48:09.071Z,99291.05
2018-03-02T12:50:36.693Z,99278.95
2018-03-02T12:53:04.351Z,99284.20
2018-03-02T12:55:31.937Z,99280.97
2018-03-02T12:57:59.523Z,99284.35
2018-03-02T13:00:27.134Z,99292.73
2018-03-02T13:02:55.020Z,99288.53
2018-03-02T13:05:22.785Z,99285.60
2018-03-02T13:07:50.678Z,99301.13
2018-03-02T13:10:18.248Z,99289.62
2018-03-02T13:12:45.922Z,99275.41
2018-03-02T13:15:13.591Z,99277.48
2018-03-02T13:17:41.321Z,99283.22
2018-03-02T13:20:08.938Z,99291.20
2018-03-02T13:22:43.287Z,99287.69
2018-03-02T13:25:10.866Z,99288.29
2018-03-02T13:27:50.407Z,99290.49
2018-03-02T13:30:18.288Z,99281.31
2018-03-02T13:32:51.874Z,99277.57
2018-03-02T13:35:19.551Z,99281.33
2018-03-02T13:37:47.127Z,99284.25
2018-03-02T13:40:26.605Z,99291.45
2018-03-02T13:42:54.276Z,99272.03
2018-03-02T13:45:22.163Z,99281.58
2018-03-02T13:51:02.865Z,99286.13
2018-03-02T13:53:30.554Z,99283.32
2018-03-02T13:55:58.230Z,99273.81
2018-03-02T13:58:25.868Z,99282.56
2018-03-02T14:00:53.454Z,99273.38
2018-03-02T14:03:33.138Z,99274.67
2018-03-02T14:06:00.808Z,99268.66
2018-03-02T14:08:28.466Z,99265.72
2018-03-02T14:10:56.098Z,99257.55
2018-03-02T14:13:23.709Z,99273.86
2018-03-02T14:15:51.583Z,99262.97
2018-03-02T14:18:19.296Z,99253.00
2018-03-02T14:20:46.949Z,99269.90
2018-03-02T14:23:14.760Z,99255.17
2018-03-02T14:25:42.718Z,99250.40
2018-03-02T14:28:10.324Z,99236.38
2018-03-02T14:30:37.972Z,99226.58
2018-03-02T14:33:05.581Z,99237.67
2018-03-02T14:35:33.197Z,99241.75
2018-03-02T14:38:00.770Z,99245.50
2018-03-02T14:40:28.366Z,99233.44
2018-03-02T14:42:56.042Z,99235.69
2018-03-02T14:45:23.612Z,99231.98
2018-03-02T14:47:51.295Z,99234.39
2018-03-02T14:50:19.068Z,99246.08
2018-03-02T14:52:46.738Z,99224.58
2018-03-02T14:55:14.321Z,99240.55
2018-03-02T14:57:41.981Z,99227.84
2018-03-02T15:00:09.556Z,99218.24
2018-03-02T15:02:37.152Z,99223.87
2018-03-02T15:05:04.776Z,99224.58
2018-03-02T15:07:32.393Z,99222.36
2018-03-02T15:09:59.986Z,99218.48
2018-03-02T15:12:27.687Z,99214.98
2018-03-02T15:14:55.400Z,99207.13
2018-03-02T15:17:23.073Z,99195.52
2018-03-02T15:19:50.756Z,99190.26
2018-03-02T15:22:18.426Z,99191.66
2018-03-02T15:24:46.212Z,99199.33
2018-03-02T15:27:13.888Z,99189.45
2018-03-02T15:29:41.565Z,99184.97
2018-03-02T15:32:09.214Z,99196.36
2018-03-02T15:34:36.918Z,99190.92
2018-03-02T15:37:04.571Z,99192.94
2018-03-02T15:39:32.370Z,99196.56
2018-03-02T15:42:00.050Z,99199.16
2018-03-02T15:44:28.745Z,99193.50
2018-03-02T15:46:56.533Z,99186.02
2018-03-02T15:49:24.254Z,99184.48
2018-03-02T15:51:51.977Z,99179.30
2018-03-02T15:54:19.643Z,99177.59
2018-03-02T15:56:47.327Z,99189.69
2018-03-02T15:59:14.928Z,99174.89
2018-03-02T16:01:42.572Z,99173.65
2018-03-02T16:04:10.240Z,99174.05
2018-03-02T16:06:37.905Z,99181.38
2018-03-02T16:09:05.597Z,99178.27
2018-03-02T16:11:33.259Z,99175.16
2018-03-02T16:14:00.827Z,99182.02
2018-03-02T16:16:28.631Z,99186.90
2018-03-02T16:18:56.288Z,99184.11
2018-03-02T16:21:23.970Z,99188.20
2018-03-02T16:23:51.583Z,99170.72
2018-03-02T16:26:19.217Z,99186.10
2018-03-02T16:28:46.806Z,99178.92
2018-03-02T16:31:14.421Z,99193.77
2018-03-02T16:33:42.057Z,99205.83
2018-03-02T16:36:09.708Z,99204.97
2018-03-02T16:38:37.382Z,99205.73
2018-03-02T16:41:05.182Z,99199.66
2018-03-02T16:43:32.855Z,99199.20
2018-03-02T16:46:00.534Z,99197.99
2018-03-02T16:48:28.304Z,99196.13
2018-03-02T16:50:56.086Z,99203.38
2018-03-02T16:53:23.723Z,99191.50
2018-03-02T16:55:51.324Z,99202.66
2018-03-02T16:58:19.011Z,99196.84
2018-03-02T17:00:46.644Z,99200.30
2018-03-02T17:03:14.257Z,99197.53
2018-03-02T17:05:41.863Z,99195.36
2018-03-02T17:08:09.511Z,99205.02
2018-03-02T17:10:37.177Z,99211.66
2018-03-02T17:13:04.835Z,99209.70
2018-03-02T17:15:32.521Z,99219.08
2018-03-02T17:18:00.131Z,99228.53
2018-03-02T17:20:27.729Z,99231.34
2018-03-02T17:22:55.544Z,99229.73
2018-03-02T17:25:23.123Z,99231.16
2018-03-02T17:27:50.743Z,99227.75
2018-03-02T17:30:18.378Z,99227.06
2018-03-02T17:32:46.054Z,99238.33
2018-03-02T17:35:13.717Z,99241.52
2018-03-02T17:37:41.508Z,99248.75
2018-03-02T17:40:09.102Z,99249.91
2018-03-02T17:42:36.695Z,99253.80
2018-03-02T17:45:04.414Z,99247.00
2018-03-02T17:47:32.094Z,99253.87
2018-03-02T17:49:59.669Z,99249.05
2018-03-02T17:52:27.328Z,99252.47
2018-03-02T17:54:54.899Z,99253.53
2018-03-02T17:57:22.606Z,99255.42
2018-03-02T17:59:50.276Z,99255.28
2018-03-02T18:02:17.953Z,99261.66
2018-03-02T18:04:45.534Z,99254.46
2018-03-02T18:07:13.289Z,99264.19
2018-03-02T18:09:40.949Z,99262.52
2018-03-02T18:12:08.515Z,99267.42
2018-03-02T18:14:36.227Z,99269.42
2018-03-02T18:17:03.809Z,99270.91
2018-03-02T18:19:31.464Z,99276.44
2018-03-02T18:21:59.357Z,99279.34
2018-03-02T18:24:27.122Z,99285.09
2018-03-02T18:26:54.810Z,99282.95
2018-03-02T18:29:22.439Z,99286.89
2018-03-02T18:31:50.046Z,99288.58
2018-03-02T18:34:17.628Z,99288.52
2018-03-02T18:36:45.299Z,99296.17
2018-03-02T18:39:12.911Z,99287.90
2018-03-02T18:41:40.761Z,99294.61
2018-03-02T18:44:08.543Z,99294.07
2018-03-02T18:46:36.193Z,99297.63
2018-03-02T18:49:03.831Z,99300.70
2018-03-02T18:51:31.455Z,99306.80
2018-03-02T18:53:59.141Z,99309.72
2018-03-02T18:56:26.725Z,99310.05
2018-03-02T18:58:54.479Z,99301.61
2018-03-02T19:01:22.154Z,99310.91
2018-03-02T19:03:49.841Z,99316.77
2018-03-02T19:06:17.473Z,99315.00
2018-03-02T19:08:45.183Z,99306.89
2018-03-02T19:11:12.971Z,99316.57
2018-03-02T19:13:40.624Z,99316.62
2018-03-02T19:16:08.322Z,99314.97
2018-03-02T19:18:35.897Z,99333.80
2018-03-02T19:21:03.770Z,99333.92
2018-03-02T19:23:31.399Z,99330.36
2018-03-02T19:25:59.124Z,99325.58
2018-03-02T19:28:27.007Z,99328.86
2018-03-02T19:30:54.862Z,99331.13
2018-03-02T19:33:22.665Z,99323.56
2018-03-02T19:35:50.516Z,99312.32
2018-03-02T19:38:18.323Z,99317.63
2018-03-02T19:40:46.206Z,99314.77
2018-03-02T19:43:14.065Z,99324.52
2018-03-02T19:45:41.863Z,99315.95
2018-03-02T19:48:09.564Z,99314.92
2018-03-02T19:50:37.489Z,99323.33
2018-03-02T19:53:05.282Z,99317.02
2018-03-02T19:55:33.074Z,99323.45
2018-03-02T19:58:00.954Z,99322.96
2018-03-02T20:00:28.706Z,99326.59
2018-03-02T20:02:56.510Z,99324.23
2018-03-02T20:05:24.398Z,99323.20
2018-03-02T20:07:52.169Z,99317.00
2018-03-02T20:10:19.947Z,99330.73
2018-03-02T20:12:47.827Z,99329.28
2018-03-02T20:15:15.710Z,99322.98
2018-03-02T20:17:43.571Z,99331.45
2018-03-02T20:20:11.334Z,99328.67
2018-03-02T20:22:39.043Z,99320.80
2018-03-02T20:25:06.820Z,99329.42
2018-03-02T20:27:34.596Z,99340.69
2018-03-02T20:30:02.478Z,99333.95
2018-03-02T20:32:30.060Z,99338.09
2018-03-02T20:34:57.721Z,99329.94
2018-03-02T20:37:25.497Z,99332.91
2018-03-02T20:39:53.176Z,99337.77
2018-03-02T20:42:20.932Z,99332.86
2018-03-02T20:44:48.541Z,99331.00
2018-03-02T20:47:16.266Z,99336.00
2018-03-02T20:49:43.877Z,99325.61
2018-03-02T20:52:11.551Z,99326.50
2018-03-02T20:54:39.432Z,99321.34
2018-03-02T20:57:07.095Z,99323.36
2018-03-02T20:59:34.888Z,99320.50
2018-03-02T21:02:02.560Z,99324.90
2018-03-02T21:04:30.320Z,99333.36
2018-03-02T21:06:57.896Z,99325.89
2018-03-02T21:09:25.513Z,99318.36
2018-03-02T21:11:53.775Z,99321.66
2018-03-02T21:14:21.354Z,99321.23
2018-03-02T21:16:48.967Z,99319.67
2018-03-02T21:19:16.701Z,99319.38
2018-03-02T21:21:44.372Z,99312.61
2018-03-02T21:24:11.970Z,99308.63
2018-03-02T21:26:39.621Z,99304.44
2018-03-02T21:29:07.287Z,99302.34
2018-03-02T21:31:34.859Z,99298.55
2018-03-02T21:34:02.486Z,99298.94
2018-03-02T21:36:30.209Z,99298.64
2018-03-02T21:38:57.774Z,99295.61
2018-03-02T21:41:25.458Z,99303.15
2018-03-02T21:43:53.079Z,99299.83
2018-03-02T21:46:20.655Z,99307.52
2018-03-02T21:48:48.278Z,99308.70
2018-03-02T21:51:15.898Z,99299.67
2018-03-02T21:53:43.532Z,99302.30
2018-03-02T21:56:11.199Z,99310.72
2018-03-02T21:58:38.767Z,99314.32
2018-03-02T22:01:06.463Z,99309.55
2018-03-02T22:03:34.238Z,99309.34
2018-03-02T22:06:01.864Z,99306.32
2018-03-02T22:08:30.518Z,99307.61
2018-03-02T22:10:58.138Z,99311.89
2018-03-02T22:13:25.704Z,99305.14
2018-03-02T22:15:53.290Z,99315.02
2018-03-02T22:18:20.892Z,99317.13
2018-03-02T22:20:48.506Z,99312.34
2018-03-02T22:23:16.100Z,99305.48
2018-03-02T22:25:43.822Z,99305.82
2018-03-02T22:28:11.457Z,99300.47
2018-03-02T22:30:39.083Z,99301.88
2018-03-02T22:33:06.658Z,99295.38
2018-03-02T22:35:34.432Z,99294.36
2018-03-02T22:38:02.096Z,99297.76
2018-03-02T22:40:29.773Z,99304.41
2018-03-02T22:42:57.387Z,99304.42
2018-03-02T22:45:25.016Z,99297.80
2018-03-02T22:47:52.639Z,99302.86
2018-03-02T22:50:20.271Z,99298.73
2018-03-02T22:52:47.847Z,99297.83
2018-03-02T22:55:15.460Z,99297.25
2018-03-02T22:57:43.040Z,99305.39
2018-03-02T23:00:10.777Z,99304.67
2018-03-02T23:02:38.362Z,99300.95
2018-03-02T23:05:06.072Z,99300.61
2018-03-02T23:07:33.661Z,99308.38
2018-03-02T23:10:01.293Z,99310.25
2018-03-02T23:12:28.952Z,99306.78
2018-03-02T23:14:56.524Z,99314.86
2018-03-02T23:17:24.145Z,99308.06
2018-03-02T23:19:51.773Z,99314.07
2018-03-02T23:22:19.426Z,99312.23
2018-03-02T23:24:47.121Z,99311.80
2018-03-02T23:27:14.902Z,99304.58
2018-03-02T23:29:42.485Z,99306.75
2018-03-02T23:32:10.255Z,99298.56
2018-03-02T23:34:37.887Z,99300.30
2018-03-02T23:37:05.486Z,99303.88
2018-03-02T23:39:33.127Z,99306.23
2018-03-02T23:42:00.855Z,99295.19
2018-03-02T23:44:28.438Z,99307.19
2018-03-02T23:46:56.199Z,99299.67
2018-03-02T23:49:23.873Z,99286.02
2018-03-02T23:51:51.606Z,99289.73
2018-03-02T23:54:19.184Z,99287.31
2018-03-02T23:56:46.761Z,99287.26
2018-03-02T23:59:14.524Z,99279.66
